• Join FlightAware (Why Join?)
  • Login
  • US Flag 
09:49PM EDT


 

Airport Tracker/Info


-or-


 

Live Flight TrackerFlight Track Log ✈ JBU185 ✈ 11-Apr-2013 ✈ KJFK - KSAN

Flight Track Log - Related Links

Times and Time Zones

All times are in EDT time to prevent confusion due to time zone crossing. See the JBU185 flight status page for this flight to view local times or setup timezone preferences in your user account.

Time Position Orientation Groundspeed Altitude Reporting Facility
EDT Latitude Longitude Course Direction KTS MPH feet Rate Location/Type
05:23PM 40.6167 -73.7000 270° West 207 238 2,500  Level New York TRACON
05:24PM 40.6167 -73.6000 90° East 271 312 4,300 2,100 Climbing New York TRACON
05:25PM 41.0816 -73.7667 North  Level FlightAware Approximate
05:25PM 40.6667 -73.5500 37° Northeast 305 351 6,700  Level New York TRACON
05:26PM 41.1190 -73.8880 304° West  Level FlightAware Approximate
05:26PM 40.7500 -73.5167 17° North 301 346 9,200  Level New York TRACON
05:27PM 41.1490 -74.0284 285° West  Level FlightAware Approximate
05:28PM 41.1667 -74.1704 270° West  Level FlightAware Approximate
05:28PM 40.9289 -73.6358 333° Northwest 330 380 12,400  Level New York Center
05:29PM 41.0108 -73.6997 330° Northwest 340 391 15,200 2,460 Climbing New York Center
05:30PM 41.0842 -73.7578 329° Northwest 340 391 17,500 1,740 Climbing New York Center
05:31PM 41.1275 -73.8589 300° West 295 339 18,800 900 Climbing New York Center
05:32PM 41.1414 -73.9669 280° West 306 352 19,400 840 Climbing New York Center
05:33PM 41.1192 -74.0928 257° West 315 362 20,500 1,080 Climbing New York Center
05:34PM 41.0917 -74.2428 256° West 343 395 21,600 1,080 Climbing New York Center
05:35PM 41.0692 -74.3764 257° West 366 421 22,700 960 Climbing New York Center
05:36PM 41.0458 -74.5181 258° West 382 440 23,500 900 Climbing New York Center
05:37PM 41.0203 -74.6625 257° West 396 456 24,500 900 Climbing New York Center
05:38PM 40.9964 -74.8150 258° West 408 470 25,400 840 Climbing New York Center
05:39PM 40.9706 -74.9619 257° West 413 475 26,200 780 Climbing New York Center
05:40PM 40.9297 -75.1106 250° West 418 481 27,000 660 Climbing New York Center
05:41PM 40.9025 -75.2294 253° West 423 487 27,500 840 Climbing New York Center
05:42PM 40.8669 -75.3975 254° West 428 493 28,700 1,080 Climbing New York Center
05:43PM 40.8339 -75.5461 254° West 433 498 29,800 1,020 Climbing New York Center
05:44PM 40.7967 -75.6914 251° West 428 493 30,800 900 Climbing New York Center
05:45PM 40.7633 -75.8369 253° West 423 487 31,700 600 Climbing New York Center
05:46PM 40.7281 -75.9767 252° West 412 474 32,000 120 Climbing New York Center
05:47PM 40.6947 -76.1194 253° West 412 474 32,000  Level New York Center
05:48PM 40.6797 -76.2658 262° West 412 474 32,000  Level New York Center
05:49PM 40.6892 -76.4172 275° West 401 461 32,000  Level New York Center
05:50PM 40.7131 -76.5672 282° West 411 473 32,000  Level New York Center
05:51PM 40.7350 -76.7142 281° West 411 473 32,000  Level New York Center
05:52PM 40.7564 -76.8667 281° West 416 479 32,000  Level New York Center
05:53PM 40.7781 -77.0139 281° West 416 479 32,000  Level New York Center
05:54PM 40.8014 -77.1614 282° West 416 479 32,000  Level New York Center
05:56PM 40.8342 -77.4133 280° West 413 475 32,000  Level Cleveland Center
05:57PM 40.8569 -77.5603 282° West 413 475 32,000  Level Cleveland Center
05:58PM 40.8753 -77.7133 279° West 413 475 32,000  Level Cleveland Center
05:59PM 40.9003 -77.8800 281° West 425 489 32,000  Level Cleveland Center
06:00PM 40.9206 -78.0303 280° West 425 489 32,000  Level Cleveland Center
06:01PM 40.9383 -78.1808 279° West 425 489 32,000  Level Cleveland Center
06:02PM 40.9578 -78.3175 281° West 425 489 32,000  Level Cleveland Center
06:03PM 40.9753 -78.4681 279° West 425 489 32,000  Level Cleveland Center
06:04PM 40.9925 -78.6189 279° West 425 489 32,000  Level Cleveland Center
06:05PM 41.0117 -78.7697 280° West 425 489 32,000  Level Cleveland Center
06:06PM 41.0286 -78.9178 279° West 425 489 32,000  Level Cleveland Center
06:07PM 41.0475 -79.0689 279° West 425 489 32,000  Level Cleveland Center
06:08PM 41.0617 -79.2172 277° West 425 489 32,000  Level Cleveland Center
06:09PM 41.0800 -79.3628 280° West 420 483 32,000  Level Cleveland Center
06:10PM 41.0983 -79.5142 279° West 415 478 32,000  Level Cleveland Center
06:11PM 41.1142 -79.6597 278° West 410 472 32,000  Level Cleveland Center
06:12PM 41.1300 -79.8250 277° West 410 472 32,000  Level Cleveland Center
06:13PM 41.1433 -79.9572 278° West 410 472 32,000  Level Cleveland Center
06:14PM 41.1606 -80.1033 279° West 405 466 32,000  Level Cleveland Center
06:15PM 41.1758 -80.2522 278° West 405 466 32,000  Level Cleveland Center
06:16PM 41.1906 -80.4175 277° West 412 474 32,000  Level Cleveland Center
06:17PM 41.2075 -80.5667 279° West 412 474 32,000  Level Cleveland Center
06:18PM 41.2219 -80.7156 277° West 412 474 32,000  Level Cleveland Center
06:19PM 41.2364 -80.8619 278° West 404 465 32,000  Level Cleveland Center
06:20PM 41.2506 -81.0083 277° West 409 471 32,000  Level Cleveland Center
06:21PM 41.2644 -81.1578 277° West 411 473 32,000  Level Cleveland Center
06:22PM 41.2781 -81.3069 277° West 405 466 32,000  Level Cleveland Center
06:23PM 41.2939 -81.4369 279° West 405 466 32,000  Level Cleveland Center
06:24PM 41.3094 -81.5894 278° West 410 472 32,000  Level Cleveland Center
06:25PM 41.3244 -81.7389 278° West 410 472 32,000  Level Cleveland Center
06:26PM 41.3375 -81.8856 277° West 405 466 32,000  Level Cleveland Center
06:27PM 41.3461 -82.0325 275° West 405 466 32,000  Level Cleveland Center
06:28PM 41.3606 -82.1989 277° West 405 466 32,000  Level Cleveland Center
06:29PM 41.3689 -82.3483 274° West 405 466 32,000  Level Cleveland Center
06:30PM 41.3750 -82.4925 273° West 405 466 32,000  Level Cleveland Center
06:31PM 41.3831 -82.6256 275° West 405 466 32,000  Level Cleveland Center
06:32PM 41.3906 -82.7753 274° West 405 466 32,000  Level Cleveland Center
06:33PM 41.4003 -82.9194 275° West 405 466 32,000  Level Cleveland Center
06:34PM 41.4075 -83.0694 274° West 405 466 32,000  Level Cleveland Center
06:35PM 41.4144 -83.2331 273° West 405 466 32,000  Level Cleveland Center
06:36PM 41.4233 -83.3828 275° West 405 466 32,000 -60 Level Cleveland Center
06:37PM 41.4300 -83.5328 273° West 405 466 31,900  Descending Cleveland Center
06:38PM 41.4364 -83.6825 273° West 405 466 32,000  Climbing Cleveland Center
06:39PM 41.4428 -83.8325 273° West 405 466 32,000  Level Cleveland Center
06:40PM 41.4508 -83.9825 274° West 411 473 32,000  Level Cleveland Center
06:42PM 41.4658 -84.2742 274° West 412 474 32,000  Level Chicago Center
06:43PM 41.4736 -84.4250 274° West 409 471 32,000  Level Chicago Center
06:44PM 41.4789 -84.5781 273° West 413 475 32,000  Level Chicago Center
06:45PM 41.4836 -84.7306 272° West 413 475 32,000  Level Chicago Center
06:46PM 41.4900 -84.8811 273° West 408 470 32,000  Level Chicago Center
06:47PM 41.4958 -85.0628 273° West 407 468 32,000  Level Chicago Center
06:48PM 41.5003 -85.2147 272° West 407 468 32,000  Level Chicago Center
06:49PM 41.5050 -85.3700 272° West 411 473 32,000  Level Chicago Center
06:50PM 41.5103 -85.5256 273° West 409 471 32,000  Level Chicago Center
06:51PM 41.5150 -85.6783 272° West 408 470 32,000  Level Chicago Center
06:52PM 41.5189 -85.8308 272° West 411 473 32,000  Level Chicago Center
06:53PM 41.5233 -85.9847 272° West 415 478 32,000  Level Chicago Center
06:54PM 41.5267 -86.1358 272° West 412 474 32,000  Level Chicago Center
06:55PM 41.5297 -86.3186 271° West 413 475 32,000  Level Chicago Center
06:56PM 41.5328 -86.4753 272° West 418 481 32,000  Level Chicago Center
06:57PM 41.5339 -86.6278 271° West 420 483 32,000  Level Chicago Center
06:58PM 41.5358 -86.7800 271° West 412 474 32,000  Level Chicago Center
06:59PM 41.5372 -86.9331 271° West 413 475 32,000  Level Chicago Center
07:00PM 41.5392 -87.1200 271° West 421 484 32,000  Level Chicago Center
07:01PM 41.5414 -87.2719 271° West 417 480 32,000  Level Chicago Center
07:02PM 41.5431 -87.4239 271° West 413 475 32,000  Level Chicago Center
07:03PM 41.5439 -87.5739 270° West 409 471 32,000  Level Chicago Center
07:04PM 41.5447 -87.7231 270° West 406 467 32,000  Level Chicago Center
07:05PM 41.5458 -87.9003 271° West 404 465 32,000  Level Chicago Center
07:06PM 41.5458 -88.0467 270° West 405 466 32,000  Level Chicago Center
07:08PM 41.5461 -88.1922 270° West 405 466 32,000  Level Chicago Center
07:09PM 41.5464 -88.3408 270° West 406 467 32,000  Level Chicago Center
07:10PM 41.5469 -88.5178 270° West 402 463 32,000  Level Chicago Center
07:11PM 41.5478 -88.6664 270° West 402 463 32,000  Level Chicago Center
07:12PM 41.5469 -88.8136 270° West 402 463 32,000  Level Chicago Center
07:13PM 41.5481 -88.9619 271° West 401 461 32,000  Level Chicago Center
07:14PM 41.5475 -89.1119 270° West 406 467 32,000  Level Chicago Center
07:15PM 41.5489 -89.2944 271° West 411 473 32,000  Level Chicago Center
07:16PM 41.5483 -89.4447 270° West 410 472 32,000  Level Chicago Center
07:17PM 41.5478 -89.5797 270° West 404 465 32,000  Level Chicago Center
07:18PM 41.5461 -89.7589 269° West 403 464 32,000 -60 Level Chicago Center
07:19PM 41.5456 -89.9072 270° West 403 464 31,900  Descending Chicago Center
07:20PM 41.5439 -90.0572 269° West 406 467 32,000  Climbing Chicago Center
07:21PM 41.5431 -90.2083 270° West 408 470 32,000  Level Chicago Center
07:22PM 41.5408 -90.3650 269° West 422 486 32,000  Level Chicago Center
07:23PM 41.5378 -90.5208 269° West 423 487 32,000  Level Chicago Center
07:24PM 41.5367 -90.6772 270° West 414 476 32,000  Level Chicago Center
07:25PM 41.5336 -90.8600 269° West 413 475 32,000  Level Chicago Center
07:26PM 41.5311 -91.0108 269° West 409 471 32,000  Level Chicago Center
07:27PM 41.5286 -91.1592 269° West 403 464 32,000  Level Chicago Center
07:28PM 41.5250 -91.3083 268° West 402 463 32,000  Level Chicago Center
07:29PM 41.5228 -91.4550 269° West 398 458 32,000  Level Chicago Center
07:30PM 41.5181 -91.6294 268° West 396 456 32,000  Level Chicago Center
07:31PM 41.5036 -91.7728 262° West 392 451 32,000  Level Chicago Center
07:32PM 41.4903 -91.9133 263° West 386 444 32,000  Level Chicago Center
07:33PM 41.4769 -92.0547 263° West 387 445 32,000  Level Chicago Center
07:34PM 41.4619 -92.1967 262° West 388 447 32,000  Level Chicago Center
07:35PM 41.4481 -92.3394 263° West 389 448 32,000  Level Chicago Center
07:37PM 41.4161 -92.6600 263° West 394 453 32,000  Level Chicago Center
07:39PM 41.4019 -92.8042 263° West 396 456 32,000  Level Chicago Center
07:40PM 41.3856 -92.9472 261° West 395 455 32,000  Level Chicago Center
07:41PM 41.3703 -93.0950 262° West 401 461 32,000 -60 Level Chicago Center
07:42PM 41.3517 -93.2747 262° West 408 470 31,900  Descending Chicago Center
07:43PM 41.3364 -93.4228 262° West 407 468 32,000  Climbing Chicago Center
07:44PM 41.3192 -93.5733 261° West 412 474 32,000  Level Chicago Center
07:45PM 41.3011 -93.7250 261° West 417 480 32,000  Level Chicago Center
07:46PM 41.2847 -93.8728 262° West 413 475 32,000  Level Chicago Center
07:47PM 41.2650 -94.0511 262° West 411 473 32,000  Level Chicago Center
07:48PM 41.2472 -94.2039 261° West 417 480 32,000  Level Chicago Center
07:49PM 41.2281 -94.3564 261° West 419 482 32,000  Level Chicago Center
07:50PM 41.2089 -94.5097 261° West 422 486 32,000  Level Chicago Center
07:51PM 41.1911 -94.6897 263° West 421 484 32,000  Level Minneapolis Center
07:52PM 41.1725 -94.8447 261° West 423 487 32,000  Level Minneapolis Center
07:53PM 41.1494 -95.0286 261° West 423 487 32,000  Level Minneapolis Center
07:54PM 41.1308 -95.1800 261° West 419 482 32,000  Level Minneapolis Center
07:55PM 41.1117 -95.3311 260° West 416 479 32,000  Level Minneapolis Center
07:56PM 41.0922 -95.4825 260° West 415 478 32,000  Level Minneapolis Center
07:57PM 41.0731 -95.6336 260° West 415 478 32,000  Level Minneapolis Center
07:58PM 41.0528 -95.7822 260° West 410 472 32,000  Level Minneapolis Center
07:59PM 41.0339 -95.9292 260° West 403 464 32,000 -60 Level Minneapolis Center
08:00PM 41.0147 -96.0750 260° West 400 460 31,900 -60 Descending Minneapolis Center
08:01PM 40.9958 -96.2208 260° West 399 459 31,900  Level Minneapolis Center
08:02PM 40.9756 -96.3694 260° West 405 466 32,000  Climbing Minneapolis Center
08:03PM 40.9506 -96.5514 260° West 414 476 32,000  Level Minneapolis Center
08:05PM 40.9294 -96.7044 260° West 419 482 32,000  Level Minneapolis Center
08:06PM 40.9069 -96.8558 259° West 420 483 32,000  Level Minneapolis Center
08:07PM 40.8794 -97.0050 256° West 417 480 32,000  Level Minneapolis Center
08:08PM 40.8533 -97.1497 257° West 410 472 32,000  Level Minneapolis Center
08:09PM 40.8289 -97.2964 258° West 409 471 32,000  Level Minneapolis Center
08:10PM 40.8028 -97.4461 257° West 404 465 32,000  Level Minneapolis Center
08:11PM 40.7769 -97.5911 257° West 404 465 32,000  Level Minneapolis Center
08:12PM 40.7475 -97.7644 257° West 403 464 32,000 120 Level Minneapolis Center
08:13PM 40.7211 -97.9078 256° West 402 463 32,400 720 Climbing Minneapolis Center
08:14PM 40.6903 -98.0761 256° West 395 455 33,700 720 Climbing Minneapolis Center
08:15PM 40.6650 -98.2169 257° West 393 452 34,000 120 Climbing Minneapolis Center
08:16PM 40.6397 -98.3603 257° West 397 457 34,000  Level Minneapolis Center
08:17PM 40.6122 -98.5078 256° West 407 468 34,000  Level Minneapolis Center
08:18PM 40.5839 -98.6556 256° West 412 474 34,000  Level Minneapolis Center
08:19PM 40.5564 -98.8028 256° West 412 474 34,000  Level Minneapolis Center
08:20PM 40.5294 -98.9486 256° West 410 472 34,000  Level Minneapolis Center
08:21PM 40.5006 -99.0953 256° West 411 473 34,000  Level Minneapolis Center
08:22PM 40.4789 -99.2136 257° West 412 474 34,000  Level Denver Center
08:23PM 40.4442 -99.3878 255° West 410 472 34,000  Level Denver Center
08:24PM 40.4164 -99.5356 256° West 414 476 34,000  Level Denver Center
08:25PM 40.3872 -99.6828 255° West 417 480 34,000  Level Denver Center
08:26PM 40.3586 -99.8311 256° West 418 481 34,000  Level Denver Center
08:27PM 40.3253 -99.9944 255° West 421 484 34,000  Level Denver Center
08:28PM 40.2972 -100.1331 255° West 414 476 34,000  Level Denver Center
08:29PM 40.2683 -100.2742 255° West 417 480 34,000  Level Denver Center
08:30PM 40.2356 -100.4369 255° West 413 475 34,000  Level Denver Center
08:31PM 40.2072 -100.5775 255° West 416 479 34,000  Level Denver Center
08:32PM 40.1875 -100.7442 261° West 415 478 34,000  Level Denver Center
08:33PM 40.1708 -100.8867 261° West 413 475 34,000  Level Denver Center
08:34PM 40.1550 -101.0300 262° West 415 478 34,000  Level Denver Center
08:35PM 40.1308 -101.1961 259° West 419 482 34,000  Level Denver Center
08:36PM 40.0831 -101.3289 245° Southwest 423 487 34,000  Level Denver Center
08:37PM 40.0303 -101.4847 246° West 418 481 34,000  Level Denver Center
08:38PM 39.9858 -101.6164 246° West 415 478 34,000  Level Denver Center
08:39PM 39.9350 -101.7711 247° West 415 478 34,000  Level Denver Center
08:41PM 39.8889 -101.9056 246° West 422 486 34,000  Level Denver Center
08:42PM 39.8425 -102.0381 246° West 420 483 34,100  Climbing Denver Center
08:43PM 39.7886 -102.1928 246° West 420 483 34,000 -60 Descending Denver Center
08:44PM 39.7431 -102.3242 246° West 417 480 34,000  Level Denver Center
08:45PM 39.6903 -102.4772 246° West 417 480 34,000  Level Denver Center
08:46PM 39.6433 -102.6072 245° Southwest 416 479 34,000  Level Denver Center
08:47PM 39.5936 -102.7508 246° West 417 480 34,000  Level Denver Center
08:48PM 39.5453 -102.8881 245° Southwest 416 479 34,000  Level Denver Center
08:49PM 39.4969 -103.0244 245° Southwest 414 476 34,000  Level Denver Center
08:50PM 39.4481 -103.1611 245° Southwest 414 476 34,000  Level Denver Center
08:51PM 39.3983 -103.2969 245° Southwest 415 478 34,000  Level Denver Center
08:52PM 39.3419 -103.4539 245° Southwest 409 471 34,000  Level Denver Center
08:53PM 39.2933 -103.5886 245° Southwest 409 471 34,000  Level Denver Center
08:54PM 39.2433 -103.7231 244° Southwest 410 472 34,000  Level Denver Center
08:55PM 39.1961 -103.8567 246° West 405 466 34,000  Level Denver Center
08:56PM 39.1472 -103.9881 244° Southwest 403 464 34,000  Level Denver Center
08:57PM 39.0981 -104.1194 244° Southwest 402 463 34,000  Level Denver Center
08:58PM 39.0497 -104.2503 245° Southwest 400 460 34,000  Level Denver Center
08:59PM 39.0017 -104.3803 245° Southwest 398 458 34,000  Level Denver Center
09:00PM 38.9517 -104.5133 244° Southwest 408 470 34,000  Level Denver Center
09:01PM 38.9028 -104.6431 244° Southwest 400 460 34,000  Level Denver Center
09:02PM 38.8533 -104.7733 244° Southwest 401 461 34,000  Level Denver Center
09:03PM 38.8042 -104.9031 244° Southwest 399 459 34,000  Level Denver Center
09:04PM 38.7458 -105.0572 244° Southwest 404 465 34,000  Level Denver Center
09:05PM 38.6947 -105.1881 243° Southwest 406 467 34,000  Level Denver Center
09:06PM 38.6447 -105.3206 244° Southwest 407 468 34,000  Level Denver Center
09:07PM 38.5936 -105.4519 244° Southwest 409 471 34,000  Level Denver Center
09:08PM 38.5436 -105.5819 244° Southwest 405 466 34,000  Level Denver Center
09:09PM 38.4922 -105.7122 243° Southwest 406 467 34,000  Level Denver Center
09:10PM 38.4411 -105.8444 244° Southwest 409 471 34,000  Level Denver Center
09:11PM 38.3842 -105.9894 243° Southwest 409 471 34,000  Level Denver Center
09:12PM 38.3350 -106.1136 243° Southwest 410 472 34,000  Level Denver Center
09:13PM 38.2839 -106.2408 243° Southwest 416 479 34,000  Level Denver Center
09:14PM 38.2322 -106.3714 243° Southwest 414 476 34,000  Level Denver Center
09:16PM 38.1703 -106.5261 243° Southwest 417 480 34,000  Level Denver Center
09:17PM 38.1200 -106.6525 243° Southwest 418 481 34,000  Level Denver Center
09:18PM 38.0606 -106.7997 243° Southwest 419 482 34,000  Level Denver Center
09:19PM 38.0097 -106.9253 243° Southwest 418 481 34,000  Level Denver Center
09:20PM 37.9581 -107.0511 243° Southwest 417 480 34,000  Level Denver Center
09:21PM 37.9017 -107.1900 243° Southwest 420 483 34,000  Level Denver Center
09:22PM 37.8406 -107.3378 242° Southwest 423 487 34,000  Level Denver Center
09:23PM 37.7894 -107.4625 243° Southwest 418 481 34,000  Level Denver Center
09:25PM 37.6750 -107.7383 242° Southwest 426 490 34,000  Level Denver Center
09:26PM 37.6131 -107.8878 242° Southwest 431 496 34,000  Level Denver Center
09:27PM 37.5603 -108.0164 243° Southwest 433 498 34,000  Level Denver Center
09:28PM 37.4983 -108.1633 242° Southwest 426 490 34,000  Level Denver Center
09:29PM 37.4433 -108.2900 241° Southwest 431 496 34,000  Level Denver Center
09:30PM 37.3800 -108.4403 242° Southwest 435 501 34,000  Level Denver Center
09:31PM 37.3261 -108.5664 242° Southwest 431 496 34,000  Level Denver Center
09:32PM 37.2714 -108.6950 242° Southwest 434 499 34,000  Level Denver Center
09:33PM 37.2075 -108.8408 241° Southwest 429 494 34,000  Level Denver Center
09:34PM 37.1531 -108.9669 242° Southwest 429 494 34,000  Level Denver Center
09:35PM 37.0900 -109.1122 241° Southwest 427 491 34,000  Level Denver Center
09:36PM 37.0358 -109.2375 242° Southwest 428 493 34,000  Level Denver Center
09:37PM 36.9722 -109.3825 241° Southwest 428 493 34,000  Level Denver Center
09:39PM 36.8803 -109.5878 241° Southwest 433 498 34,000  Level Los Angeles Center
09:39PM 36.8442 -109.6736 242° Southwest 427 491 34,000  Level Denver Center
09:40PM 36.7797 -109.8194 241° Southwest 430 495 34,000  Level Denver Center
09:42PM 36.7242 -109.9444 241° Southwest 431 496 34,000  Level Denver Center
09:43PM 36.6592 -110.0903 241° Southwest 431 496 34,000  Level Denver Center
09:44PM 36.6047 -110.2125 241° Southwest 428 493 34,000  Level Denver Center
09:45PM 36.5464 -110.3417 241° Southwest 428 493 34,000  Level Denver Center
09:46PM 36.4931 -110.4739 243° Southwest 430 495 34,000  Level Denver Center
09:47PM 36.4300 -110.6333 244° Southwest 429 494 34,000  Level Denver Center
09:48PM 36.3733 -110.7689 243° Southwest 436 502 34,100  Climbing Denver Center
09:49PM 36.3169 -110.9028 242° Southwest 437 503 34,000 -60 Descending Denver Center
09:50PM 36.2639 -111.0344 243° Southwest 433 498 34,000  Level Denver Center
09:51PM 36.2083 -111.1664 242° Southwest 432 497 34,000  Level Denver Center
09:52PM 36.1542 -111.3003 243° Southwest 434 499 34,000  Level Denver Center
09:53PM 36.0967 -111.4333 242° Southwest 438 504 34,000  Level Denver Center
09:54PM 36.0311 -111.5925 243° Southwest 435 501 34,000  Level Denver Center
09:55PM 35.9753 -111.7233 242° Southwest 432 497 34,000  Level Denver Center
09:56PM 35.9208 -111.8533 243° Southwest 428 493 34,000  Level Denver Center
09:56PM 35.8997 -111.9025 242° Southwest 427 491 34,000  Level Los Angeles Center
09:57PM 35.8450 -112.0319 242° Southwest 428 493 34,000  Level Los Angeles Center
09:58PM 35.7903 -112.1594 242° Southwest 426 490 34,000  Level Los Angeles Center
09:59PM 35.7364 -112.2850 242° Southwest 420 483 34,000  Level Los Angeles Center
10:00PM 35.6822 -112.4108 242° Southwest 420 483 34,000  Level Los Angeles Center
10:01PM 35.6169 -112.5611 242° Southwest 419 482 34,000  Level Los Angeles Center
10:03PM 35.5703 -112.6700 242° Southwest 413 475 34,000  Level Los Angeles Center
10:04PM 35.5047 -112.8211 242° Southwest 416 479 34,000  Level Los Angeles Center
10:05PM 35.4503 -112.9472 242° Southwest 417 480 34,000  Level Los Angeles Center
10:06PM 35.3958 -113.0692 241° Southwest 418 481 34,000  Level Los Angeles Center
10:07PM 35.3517 -113.1694 242° Southwest 417 480 34,000  Level Los Angeles Center
10:08PM 35.2831 -113.3247 242° Southwest 418 481 34,000  Level Los Angeles Center
10:09PM 35.2275 -113.4492 241° Southwest 420 483 34,000  Level Los Angeles Center
10:10PM 35.1728 -113.5725 242° Southwest 417 480 34,000  Level Los Angeles Center
10:11PM 35.1297 -113.6706 242° Southwest 413 475 34,000  Level Los Angeles Center
10:12PM 35.0531 -113.8433 242° Southwest 415 478 34,000  Level Los Angeles Center
10:13PM 34.9961 -113.9667 241° Southwest 416 479 34,000 -180 Level Los Angeles Center
10:14PM 34.9408 -114.0892 241° Southwest 412 474 33,700 -660 Descending Los Angeles Center
10:15PM 34.8842 -114.2139 241° Southwest 417 480 32,700 -1,020 Descending Los Angeles Center
10:16PM 34.8261 -114.3406 241° Southwest 426 490 31,700 -1,320 Descending Los Angeles Center
10:17PM 34.7681 -114.4597 239° Southwest 412 474 30,000 -840 Descending Los Angeles Center
10:18PM 34.6672 -114.5847 226° Southwest 431 496 30,000  Level Los Angeles Center
10:19PM 34.5939 -114.6683 223° Southwest 430 495 30,000 -540 Level Los Angeles Center
10:20PM 34.4908 -114.7861 223° Southwest 425 489 29,000 -1,020 Descending Los Angeles Center
10:21PM 34.4053 -114.8836 223° Southwest 424 488 28,000 -480 Descending Los Angeles Center
10:22PM 34.3214 -114.9783 223° Southwest 415 478 28,000  Level Los Angeles Center
10:23PM 34.2375 -115.0722 223° Southwest 412 474 28,000  Level Los Angeles Center
10:24PM 34.1539 -115.1678 223° Southwest 413 475 28,000  Level Los Angeles Center
10:25PM 34.0694 -115.2614 223° Southwest 414 476 28,000 -60 Level Los Angeles Center
10:26PM 33.9700 -115.3725 223° Southwest 408 470 27,900  Descending Los Angeles Center
10:27PM 33.8856 -115.4667 223° Southwest 413 475 28,000  Climbing Los Angeles Center
10:28PM 33.8028 -115.5586 223° Southwest 408 470 27,900 -420 Descending Los Angeles Center
10:29PM 33.7203 -115.6508 223° Southwest 405 466 27,200 -840 Descending Los Angeles Center
10:30PM 33.6386 -115.7425 223° Southwest 404 465 26,200 -1,200 Descending Los Angeles Center
10:31PM 33.5708 -115.8464 232° Southwest 396 456 24,800 -1,140 Descending Los Angeles Center
10:32PM 33.5053 -115.9486 232° Southwest 389 448 23,900 -1,740 Descending Los Angeles Center
10:33PM 33.4011 -116.0553 221° Southwest 409 471 21,300 -2,280 Descending Los Angeles Center
10:34PM 33.3153 -116.1400 220° Southwest 404 465 19,300 -1,980 Descending Los Angeles Center
10:35PM 33.2347 -116.2203 220° Southwest 383 441 17,300 -1,860 Descending Los Angeles Center
10:37PM 33.1556 -116.2975 219° Southwest 374 430 15,500 -1,800 Descending Los Angeles Center
10:38PM 33.0786 -116.3725 219° Southwest 364 419 13,700 -1,800 Descending Los Angeles Center
10:39PM 33.0050 -116.4417 218° Southwest 346 398 11,900 -1,440 Descending Los Angeles Center
10:40PM 32.9083 -116.4989 206° Southwest 326 375 10,800 -1,020 Descending Los Angeles Center
10:41PM 32.8400 -116.5436 209° Southwest 309 356 9,900 -1,260 Descending Los Angeles Center
10:42PM 32.8008 -116.6261 241° Southwest 293 337 8,300 -1,500 Descending Los Angeles Center
10:43PM 32.7664 -116.7067 243° Southwest 280 322 6,900 -1,200 Descending Los Angeles Center
10:44PM 32.7342 -116.7847 244° Southwest 270 311 5,900 -1,140 Descending Los Angeles Center
10:45PM 32.6989 -116.8689 244° Southwest 245 282 4,600 -960 Descending Los Angeles Center
10:46PM 32.6667 -116.9333 239° Southwest 212 244 4,100 -720 Descending Southern California TRACON
10:47PM 32.6833 -116.9833 292° West 193 222 3,300 -900 Descending Southern California TRACON
10:48PM 32.7000 -117.0500 287° West 186 214 2,400 -960 Descending Southern California TRACON
10:49PM 32.7167 -117.1000 292° West 155 178 1,400 -900 Descending Southern California TRACON
10:50PM 32.7167 -117.1500 270° West 141 162 700 -660 Descending Southern California TRACON
10:50PM 32.7244 -117.1497 North 148 170 600 22,800 Descending Los Angeles Center
10:51PM 32.7356 -117.1944 286° West 143 165 30,000 28,440 Climbing Los Angeles Center